sensor_id;sensor_type;location;lat;lon;timestamp;pressure;altitude;pressure_sealevel;temperature;humidity
62926;BME280;55732;52.248;-0.844;2022-12-20T00:00:52;99376.27;;;12.42;99.76
62926;BME280;55732;52.248;-0.844;2022-12-20T00:03:17;99372.77;;;12.41;99.86
62926;BME280;55732;52.248;-0.844;2022-12-20T00:05:43;99378.95;;;12.41;99.81
62926;BME280;55732;52.248;-0.844;2022-12-20T00:08:08;99378.44;;;12.40;99.78
62926;BME280;55732;52.248;-0.844;2022-12-20T00:10:38;99378.80;;;12.39;99.78
62926;BME280;55732;52.248;-0.844;2022-12-20T00:13:03;99377.74;;;12.40;99.76
62926;BME280;55732;52.248;-0.844;2022-12-20T00:15:29;99374.96;;;12.39;99.71
62926;BME280;55732;52.248;-0.844;2022-12-20T00:17:55;99371.45;;;12.39;99.69
62926;BME280;55732;52.248;-0.844;2022-12-20T00:20:21;99378.16;;;12.38;99.66
62926;BME280;55732;52.248;-0.844;2022-12-20T00:22:46;99380.30;;;12.37;99.71
62926;BME280;55732;52.248;-0.844;2022-12-20T00:25:11;99381.73;;;12.36;99.76
62926;BME280;55732;52.248;-0.844;2022-12-20T00:27:36;99379.08;;;12.36;99.66
62926;BME280;55732;52.248;-0.844;2022-12-20T00:30:02;99376.06;;;12.37;99.67
62926;BME280;55732;52.248;-0.844;2022-12-20T00:32:27;99373.59;;;12.37;99.56
62926;BME280;55732;52.248;-0.844;2022-12-20T00:34:53;99374.13;;;12.37;99.65
62926;BME280;55732;52.248;-0.844;2022-12-20T00:37:18;99366.54;;;12.37;99.63
62926;BME280;55732;52.248;-0.844;2022-12-20T00:39:43;99370.41;;;12.37;99.44
62926;BME280;55732;52.248;-0.844;2022-12-20T00:42:08;99369.88;;;12.38;99.41
62926;BME280;55732;52.248;-0.844;2022-12-20T00:44:34;99372.18;;;12.37;99.45
62926;BME280;55732;52.248;-0.844;2022-12-20T00:46:59;99363.88;;;12.37;99.42
62926;BME280;55732;52.248;-0.844;2022-12-20T00:49:24;99364.21;;;12.38;99.39
62926;BME280;55732;52.248;-0.844;2022-12-20T00:51:50;99366.86;;;12.38;99.38
62926;BME280;55732;52.248;-0.844;2022-12-20T00:54:15;99367.75;;;12.38;99.22
62926;BME280;55732;52.248;-0.844;2022-12-20T00:56:40;99366.34;;;12.38;99.29
62926;BME280;55732;52.248;-0.844;2022-12-20T00:59:05;99363.00;;;12.37;99.20
62926;BME280;55732;52.248;-0.844;2022-12-20T01:01:31;99358.06;;;12.37;99.25
62926;BME280;55732;52.248;-0.844;2022-12-20T01:03:57;99357.38;;;12.37;99.32
62926;BME280;55732;52.248;-0.844;2022-12-20T01:06:23;99363.59;;;12.35;99.32
62926;BME280;55732;52.248;-0.844;2022-12-20T01:08:49;99361.14;;;12.34;99.33
62926;BME280;55732;52.248;-0.844;2022-12-20T01:11:15;99361.52;;;12.33;99.36
62926;BME280;55732;52.248;-0.844;2022-12-20T01:13:42;99361.90;;;12.32;99.30
62926;BME280;55732;52.248;-0.844;2022-12-20T01:16:42;99360.69;;;12.31;99.34
62926;BME280;55732;52.248;-0.844;2022-12-20T01:18:59;99366.02;;;12.29;99.43
62926;BME280;55732;52.248;-0.844;2022-12-20T01:21:26;99369.20;;;12.29;99.56
62926;BME280;55732;52.248;-0.844;2022-12-20T01:23:51;99376.44;;;12.29;99.62
62926;BME280;55732;52.248;-0.844;2022-12-20T01:26:19;99367.30;;;12.28;99.53
62926;BME280;55732;52.248;-0.844;2022-12-20T01:28:45;99372.14;;;12.26;99.55
62926;BME280;55732;52.248;-0.844;2022-12-20T01:31:12;99376.58;;;12.25;99.65
62926;BME280;55732;52.248;-0.844;2022-12-20T01:33:37;99372.89;;;12.24;99.63
62926;BME280;55732;52.248;-0.844;2022-12-20T01:36:07;99369.56;;;12.23;99.68
62926;BME280;55732;52.248;-0.844;2022-12-20T01:38:33;99372.59;;;12.22;99.66
62926;BME280;55732;52.248;-0.844;2022-12-20T01:40:59;99372.61;;;12.21;99.84
62926;BME280;55732;52.248;-0.844;2022-12-20T01:43:25;99370.16;;;12.20;99.80
62926;BME280;55732;52.248;-0.844;2022-12-20T01:45:53;99364.38;;;12.19;99.79
62926;BME280;55732;52.248;-0.844;2022-12-20T01:48:23;99366.66;;;12.19;99.85
62926;BME280;55732;52.248;-0.844;2022-12-20T01:50:49;99366.86;;;12.18;99.81
62926;BME280;55732;52.248;-0.844;2022-12-20T01:53:15;99360.34;;;12.17;99.96
62926;BME280;55732;52.248;-0.844;2022-12-20T01:55:42;99367.38;;;12.19;99.99
62926;BME280;55732;52.248;-0.844;2022-12-20T01:58:08;99361.23;;;12.18;99.96
62926;BME280;55732;52.248;-0.844;2022-12-20T02:00:35;99362.48;;;12.17;99.87
62926;BME280;55732;52.248;-0.844;2022-12-20T02:03:03;99362.50;;;12.16;99.94
62926;BME280;55732;52.248;-0.844;2022-12-20T02:05:33;99360.05;;;12.16;99.88
62926;BME280;55732;52.248;-0.844;2022-12-20T02:07:59;99362.89;;;12.15;99.97
62926;BME280;55732;52.248;-0.844;2022-12-20T02:10:26;99360.79;;;12.15;100.00
62926;BME280;55732;52.248;-0.844;2022-12-20T02:12:57;99358.11;;;12.16;100.00
62926;BME280;55732;52.248;-0.844;2022-12-20T02:15:31;99354.38;;;12.16;100.00
62926;BME280;55732;52.248;-0.844;2022-12-20T02:18:21;99346.42;;;12.17;100.00
62926;BME280;55732;52.248;-0.844;2022-12-20T02:26:04;99344.63;;;12.18;100.00
62926;BME280;55732;52.248;-0.844;2022-12-20T02:31:20;99344.20;;;12.21;99.93
62926;BME280;55732;52.248;-0.844;2022-12-20T02:33:49;99333.60;;;12.21;99.92
62926;BME280;55732;52.248;-0.844;2022-12-20T02:36:16;99333.77;;;12.22;99.91
62926;BME280;55732;52.248;-0.844;2022-12-20T02:38:42;99328.97;;;12.23;99.95
62926;BME280;55732;52.248;-0.844;2022-12-20T02:41:26;99330.02;;;12.24;99.82
62926;BME280;55732;52.248;-0.844;2022-12-20T02:43:55;99331.77;;;12.24;99.75
62926;BME280;55732;52.248;-0.844;2022-12-20T02:46:40;99325.39;;;12.25;99.60
62926;BME280;55732;52.248;-0.844;2022-12-20T02:49:08;99326.98;;;12.25;99.72
62926;BME280;55732;52.248;-0.844;2022-12-20T02:51:35;99325.02;;;12.26;99.74
62926;BME280;55732;52.248;-0.844;2022-12-20T02:54:01;99323.55;;;12.27;99.62
62926;BME280;55732;52.248;-0.844;2022-12-20T02:56:31;99318.58;;;12.27;99.57
62926;BME280;55732;52.248;-0.844;2022-12-20T02:58:59;99312.22;;;12.28;99.56
62926;BME280;55732;52.248;-0.844;2022-12-20T03:01:27;99309.57;;;12.28;99.58
62926;BME280;55732;52.248;-0.844;2022-12-20T03:03:54;99301.06;;;12.29;99.45
62926;BME280;55732;52.248;-0.844;2022-12-20T03:06:20;99297.52;;;12.30;99.34
62926;BME280;55732;52.248;-0.844;2022-12-20T03:08:46;99285.86;;;12.30;99.31
62926;BME280;55732;52.248;-0.844;2022-12-20T03:11:11;99283.73;;;12.31;99.35
62926;BME280;55732;52.248;-0.844;2022-12-20T03:13:37;99283.20;;;12.32;99.50
62926;BME280;55732;52.248;-0.844;2022-12-20T03:16:02;99281.77;;;12.32;99.48
62926;BME280;55732;52.248;-0.844;2022-12-20T03:18:27;99284.41;;;12.33;99.36
62926;BME280;55732;52.248;-0.844;2022-12-20T03:20:53;99288.30;;;12.32;99.49
62926;BME280;55732;52.248;-0.844;2022-12-20T03:23:18;99284.80;;;12.31;99.50
62926;BME280;55732;52.248;-0.844;2022-12-20T03:25:43;99282.86;;;12.30;99.49
62926;BME280;55732;52.248;-0.844;2022-12-20T03:28:08;99282.01;;;12.29;99.53
62926;BME280;55732;52.248;-0.844;2022-12-20T03:30:34;99266.98;;;12.30;99.71
62926;BME280;55732;52.248;-0.844;2022-12-20T03:32:59;99270.14;;;12.31;99.53
62926;BME280;55732;52.248;-0.844;2022-12-20T03:35:25;99269.43;;;12.32;99.44
62926;BME280;55732;52.248;-0.844;2022-12-20T03:37:50;99263.59;;;12.32;99.41
62926;BME280;55732;52.248;-0.844;2022-12-20T03:40:15;99263.60;;;12.32;99.36
62926;BME280;55732;52.248;-0.844;2022-12-20T03:42:41;99266.25;;;12.31;99.43
62926;BME280;55732;52.248;-0.844;2022-12-20T03:45:06;99259.17;;;12.32;99.38
62926;BME280;55732;52.248;-0.844;2022-12-20T03:47:31;99252.63;;;12.32;99.31
62926;BME280;55732;52.248;-0.844;2022-12-20T03:49:57;99255.98;;;12.33;99.35
62926;BME280;55732;52.248;-0.844;2022-12-20T03:52:22;99255.27;;;12.34;99.20
62926;BME280;55732;52.248;-0.844;2022-12-20T03:54:47;99253.30;;;12.34;99.34
62926;BME280;55732;52.248;-0.844;2022-12-20T03:57:13;99247.50;;;12.33;99.51
62926;BME280;55732;52.248;-0.844;2022-12-20T03:59:38;99245.20;;;12.33;99.57
62926;BME280;55732;52.248;-0.844;2022-12-20T04:02:03;99232.71;;;12.32;99.66
62926;BME280;55732;52.248;-0.844;2022-12-20T04:04:29;99230.96;;;12.31;99.75
62926;BME280;55732;52.248;-0.844;2022-12-20T04:06:54;99223.05;;;12.29;99.81
62926;BME280;55732;52.248;-0.844;2022-12-20T04:09:19;99223.23;;;12.29;99.96
62926;BME280;55732;52.248;-0.844;2022-12-20T04:11:45;99224.98;;;12.29;99.90
62926;BME280;55732;52.248;-0.844;2022-12-20T04:14:10;99228.86;;;12.30;99.93
62926;BME280;55732;52.248;-0.844;2022-12-20T04:16:35;99228.84;;;12.32;99.95
62926;BME280;55732;52.248;-0.844;2022-12-20T04:19:01;99222.45;;;12.33;99.99
62926;BME280;55732;52.248;-0.844;2022-12-20T04:21:27;99219.95;;;12.34;99.98
62926;BME280;55732;52.248;-0.844;2022-12-20T04:23:53;99217.65;;;12.34;99.97
62926;BME280;55732;52.248;-0.844;2022-12-20T04:26:18;99214.08;;;12.35;100.00
62926;BME280;55732;52.248;-0.844;2022-12-20T04:28:44;99208.89;;;12.32;100.00
62926;BME280;55732;52.248;-0.844;2022-12-20T04:31:09;99207.00;;;12.36;100.00
62926;BME280;55732;52.248;-0.844;2022-12-20T04:33:35;99200.83;;;12.36;100.00
62926;BME280;55732;52.248;-0.844;2022-12-20T04:36:00;99194.66;;;12.36;100.00
62926;BME280;55732;52.248;-0.844;2022-12-20T04:38:26;99188.10;;;12.36;100.00
62926;BME280;55732;52.248;-0.844;2022-12-20T04:40:51;99177.89;;;12.35;100.00
62926;BME280;55732;52.248;-0.844;2022-12-20T04:43:17;99234.59;;;12.34;100.00
62926;BME280;55732;52.248;-0.844;2022-12-20T04:45:43;99273.52;;;12.25;98.02
62926;BME280;55732;52.248;-0.844;2022-12-20T04:48:09;99304.39;;;11.94;95.02
62926;BME280;55732;52.248;-0.844;2022-12-20T04:50:35;99314.92;;;11.53;93.93
62926;BME280;55732;52.248;-0.844;2022-12-20T04:53:00;99315.89;;;11.15;93.35
62926;BME280;55732;52.248;-0.844;2022-12-20T04:55:44;99311.50;;;10.84;93.85
62926;BME280;55732;52.248;-0.844;2022-12-20T04:58:09;99314.98;;;10.62;94.33
62926;BME280;55732;52.248;-0.844;2022-12-20T05:00:35;99310.95;;;10.44;94.53
62926;BME280;55732;52.248;-0.844;2022-12-20T05:03:00;99320.90;;;10.32;94.65
62926;BME280;55732;52.248;-0.844;2022-12-20T05:05:25;99324.63;;;10.22;94.68
62926;BME280;55732;52.248;-0.844;2022-12-20T05:07:51;99331.48;;;10.11;94.68
62926;BME280;55732;52.248;-0.844;2022-12-20T05:10:16;99337.42;;;10.04;94.66
62926;BME280;55732;52.248;-0.844;2022-12-20T05:12:41;99336.53;;;9.95;94.65
62926;BME280;55732;52.248;-0.844;2022-12-20T05:15:07;99343.75;;;9.86;94.90
62926;BME280;55732;52.248;-0.844;2022-12-20T05:17:32;99352.26;;;9.81;95.27
62926;BME280;55732;52.248;-0.844;2022-12-20T05:19:58;99357.38;;;9.80;95.38
62926;BME280;55732;52.248;-0.844;2022-12-20T05:22:23;99368.02;;;9.75;95.07
62926;BME280;55732;52.248;-0.844;2022-12-20T05:25:09;99373.15;;;9.73;95.37
62926;BME280;55732;52.248;-0.844;2022-12-20T05:27:53;99385.81;;;9.73;95.67
62926;BME280;55732;52.248;-0.844;2022-12-20T05:30:18;99387.39;;;9.74;95.51
62926;BME280;55732;52.248;-0.844;2022-12-20T05:32:44;99389.48;;;9.75;95.62
62926;BME280;55732;52.248;-0.844;2022-12-20T05:35:09;99389.83;;;9.75;95.42
62926;BME280;55732;52.248;-0.844;2022-12-20T05:37:34;99393.36;;;9.74;95.46
62926;BME280;55732;52.248;-0.844;2022-12-20T05:40:00;99395.14;;;9.72;95.36
62926;BME280;55732;52.248;-0.844;2022-12-20T05:42:25;99401.13;;;9.71;95.37
62926;BME280;55732;52.248;-0.844;2022-12-20T05:44:50;99410.82;;;9.70;95.39
62926;BME280;55732;52.248;-0.844;2022-12-20T05:47:16;99419.63;;;9.68;95.22
62926;BME280;55732;52.248;-0.844;2022-12-20T05:49:41;99429.52;;;9.67;95.41
62926;BME280;55732;52.248;-0.844;2022-12-20T05:52:06;99435.69;;;9.65;95.42
62926;BME280;55732;52.248;-0.844;2022-12-20T05:54:31;99430.76;;;9.66;95.62
62926;BME280;55732;52.248;-0.844;2022-12-20T05:56:57;99429.00;;;9.66;95.48
62926;BME280;55732;52.248;-0.844;2022-12-20T05:59:22;99426.38;;;9.65;95.24
62926;BME280;55732;52.248;-0.844;2022-12-20T06:01:48;99429.20;;;9.64;95.41
62926;BME280;55732;52.248;-0.844;2022-12-20T06:04:13;99396.28;;;9.47;95.54
62926;BME280;55732;52.248;-0.844;2022-12-20T06:06:38;99436.41;;;9.64;95.31
62926;BME280;55732;52.248;-0.844;2022-12-20T06:09:03;99446.95;;;9.65;95.47
62926;BME280;55732;52.248;-0.844;2022-12-20T06:11:29;99451.54;;;9.63;95.19
62926;BME280;55732;52.248;-0.844;2022-12-20T06:13:54;99455.83;;;9.59;94.91
62926;BME280;55732;52.248;-0.844;2022-12-20T06:16:19;99457.32;;;9.53;95.10
62926;BME280;55732;52.248;-0.844;2022-12-20T06:18:47;99463.18;;;9.48;95.02
62926;BME280;55732;52.248;-0.844;2022-12-20T06:21:12;99474.70;;;9.42;94.81
62926;BME280;55732;52.248;-0.844;2022-12-20T06:23:37;99475.34;;;9.33;94.64
62926;BME280;55732;52.248;-0.844;2022-12-20T06:26:03;99475.29;;;9.25;94.83
62926;BME280;55732;52.248;-0.844;2022-12-20T06:28:29;99473.81;;;9.17;94.99
62926;BME280;55732;52.248;-0.844;2022-12-20T06:30:54;99478.83;;;9.10;94.89
62926;BME280;55732;52.248;-0.844;2022-12-20T06:33:20;99480.70;;;9.00;94.74
62926;BME280;55732;52.248;-0.844;2022-12-20T06:35:45;99482.23;;;8.90;94.79
62926;BME280;55732;52.248;-0.844;2022-12-20T06:38:11;99490.26;;;8.81;95.22
62926;BME280;55732;52.248;-0.844;2022-12-20T06:40:36;99500.32;;;8.75;95.30
62926;BME280;55732;52.248;-0.844;2022-12-20T06:43:01;99510.24;;;8.66;95.41
62926;BME280;55732;52.248;-0.844;2022-12-20T06:45:27;99519.27;;;8.59;95.41
62926;BME280;55732;52.248;-0.844;2022-12-20T06:47:52;99529.15;;;8.53;95.64
62926;BME280;55732;52.248;-0.844;2022-12-20T06:50:17;99532.54;;;8.48;95.75
62926;BME280;55732;52.248;-0.844;2022-12-20T06:52:42;99536.44;;;8.43;95.78
62926;BME280;55732;52.248;-0.844;2022-12-20T06:55:08;99542.62;;;8.39;95.87
62926;BME280;55732;52.248;-0.844;2022-12-20T06:57:33;99545.83;;;8.34;96.08
62926;BME280;55732;52.248;-0.844;2022-12-20T06:59:58;99552.32;;;8.31;96.05
62926;BME280;55732;52.248;-0.844;2022-12-20T07:02:24;99555.30;;;8.28;96.09
62926;BME280;55732;52.248;-0.844;2022-12-20T07:04:49;99558.69;;;8.24;95.98
62926;BME280;55732;52.248;-0.844;2022-12-20T07:07:15;99563.97;;;8.20;95.89
62926;BME280;55732;52.248;-0.844;2022-12-20T07:09:41;99567.33;;;8.16;96.01
62926;BME280;55732;52.248;-0.844;2022-12-20T07:12:07;99573.86;;;8.12;96.01
62926;BME280;55732;52.248;-0.844;2022-12-20T07:14:33;99579.84;;;8.08;96.02
62926;BME280;55732;52.248;-0.844;2022-12-20T07:16:58;99583.55;;;8.05;96.09
62926;BME280;55732;52.248;-0.844;2022-12-20T07:19:23;99589.51;;;8.03;96.26
62926;BME280;55732;52.248;-0.844;2022-12-20T07:21:49;99589.15;;;8.04;96.45
62926;BME280;55732;52.248;-0.844;2022-12-20T07:24:14;99586.87;;;8.05;96.50
62926;BME280;55732;52.248;-0.844;2022-12-20T07:26:39;99587.04;;;8.06;96.47
62926;BME280;55732;52.248;-0.844;2022-12-20T07:29:05;99593.54;;;8.05;96.37
62926;BME280;55732;52.248;-0.844;2022-12-20T07:31:30;99592.83;;;8.06;96.48
62926;BME280;55732;52.248;-0.844;2022-12-20T07:33:56;99595.10;;;8.07;96.69
62926;BME280;55732;52.248;-0.844;2022-12-20T07:36:21;99600.89;;;8.06;96.39
62926;BME280;55732;52.248;-0.844;2022-12-20T07:38:46;99604.58;;;8.05;96.45
62926;BME280;55732;52.248;-0.844;2022-12-20T07:41:13;99605.48;;;8.03;96.47
62926;BME280;55732;52.248;-0.844;2022-12-20T07:43:39;99612.16;;;8.01;96.62
62926;BME280;55732;52.248;-0.844;2022-12-20T07:46:05;99614.27;;;7.99;96.52
62926;BME280;55732;52.248;-0.844;2022-12-20T07:48:31;99613.59;;;7.95;96.32
62926;BME280;55732;52.248;-0.844;2022-12-20T07:50:58;99617.65;;;7.90;96.36
62926;BME280;55732;52.248;-0.844;2022-12-20T07:53:25;99627.84;;;7.89;96.51
62926;BME280;55732;52.248;-0.844;2022-12-20T07:55:52;99635.73;;;7.87;96.42
62926;BME280;55732;52.248;-0.844;2022-12-20T07:58:18;99640.45;;;7.84;96.22
62926;BME280;55732;52.248;-0.844;2022-12-20T08:00:44;99653.27;;;7.83;96.35
62926;BME280;55732;52.248;-0.844;2022-12-20T08:03:11;99662.55;;;7.83;96.49
62926;BME280;55732;52.248;-0.844;2022-12-20T08:05:37;99670.27;;;7.82;96.43
62926;BME280;55732;52.248;-0.844;2022-12-20T08:08:05;99677.27;;;7.81;96.26
62926;BME280;55732;52.248;-0.844;2022-12-20T08:10:31;99684.33;;;7.77;96.16
62926;BME280;55732;52.248;-0.844;2022-12-20T08:12:56;99682.40;;;7.74;96.10
62926;BME280;55732;52.248;-0.844;2022-12-20T08:15:22;99689.75;;;7.72;96.23
62926;BME280;55732;52.248;-0.844;2022-12-20T08:17:48;99693.44;;;7.69;96.16
62926;BME280;55732;52.248;-0.844;2022-12-20T08:20:14;99695.40;;;7.66;96.08
62926;BME280;55732;52.248;-0.844;2022-12-20T08:22:39;99695.59;;;7.63;96.11
62926;BME280;55732;52.248;-0.844;2022-12-20T08:25:05;99698.21;;;7.58;96.00
62926;BME280;55732;52.248;-0.844;2022-12-20T08:27:30;99700.70;;;7.54;96.12
62926;BME280;55732;52.248;-0.844;2022-12-20T08:29:55;99702.29;;;7.52;96.23
62926;BME280;55732;52.248;-0.844;2022-12-20T08:32:21;99705.44;;;7.50;96.22
62926;BME280;55732;52.248;-0.844;2022-12-20T08:34:46;99713.84;;;7.48;96.39
62926;BME280;55732;52.248;-0.844;2022-12-20T08:37:14;99718.75;;;7.48;96.50
62926;BME280;55732;52.248;-0.844;2022-12-20T08:39:40;99723.30;;;7.48;96.36
62926;BME280;55732;52.248;-0.844;2022-12-20T08:42:05;99721.90;;;7.47;96.33
62926;BME280;55732;52.248;-0.844;2022-12-20T08:44:30;99724.52;;;7.48;96.36
62926;BME280;55732;52.248;-0.844;2022-12-20T08:46:55;99730.48;;;7.49;96.47
62926;BME280;55732;52.248;-0.844;2022-12-20T08:49:21;99736.79;;;7.53;96.63
62926;BME280;55732;52.248;-0.844;2022-12-20T08:51:46;99744.11;;;7.59;96.46
62926;BME280;55732;52.248;-0.844;2022-12-20T08:54:11;99749.55;;;7.64;96.18
62926;BME280;55732;52.248;-0.844;2022-12-20T08:56:37;99755.12;;;7.69;96.31
62926;BME280;55732;52.248;-0.844;2022-12-20T08:59:02;99763.36;;;7.76;96.45
62926;BME280;55732;52.248;-0.844;2022-12-20T09:01:28;99768.75;;;7.81;96.13
62926;BME280;55732;52.248;-0.844;2022-12-20T09:03:54;99770.67;;;7.85;95.92
62926;BME280;55732;52.248;-0.844;2022-12-20T09:06:19;99769.45;;;7.89;95.83
62926;BME280;55732;52.248;-0.844;2022-12-20T09:08:45;99771.52;;;7.94;95.78
62926;BME280;55732;52.248;-0.844;2022-12-20T09:11:12;99772.39;;;7.97;95.58
62926;BME280;55732;52.248;-0.844;2022-12-20T09:13:39;99774.64;;;8.02;95.64
62926;BME280;55732;52.248;-0.844;2022-12-20T09:16:05;99776.55;;;8.06;95.43
62926;BME280;55732;52.248;-0.844;2022-12-20T09:18:31;99776.38;;;8.08;95.30
62926;BME280;55732;52.248;-0.844;2022-12-20T09:21:00;99777.60;;;8.11;95.08
62926;BME280;55732;52.248;-0.844;2022-12-20T09:23:26;99775.98;;;8.15;95.16
62926;BME280;55732;52.248;-0.844;2022-12-20T09:25:51;99781.05;;;8.20;94.96
62926;BME280;55732;52.248;-0.844;2022-12-20T09:28:17;99784.91;;;8.23;94.54
62926;BME280;55732;52.248;-0.844;2022-12-20T09:30:42;99783.66;;;8.26;94.39
62926;BME280;55732;52.248;-0.844;2022-12-20T09:33:07;99782.95;;;8.31;94.35
62926;BME280;55732;52.248;-0.844;2022-12-20T09:35:32;99784.52;;;8.36;94.10
62926;BME280;55732;52.248;-0.844;2022-12-20T09:37:58;99785.89;;;8.40;94.13
62926;BME280;55732;52.248;-0.844;2022-12-20T09:40:24;99789.20;;;8.45;93.93
62926;BME280;55732;52.248;-0.844;2022-12-20T09:42:51;99790.43;;;8.47;93.79
62926;BME280;55732;52.248;-0.844;2022-12-20T09:45:35;99795.64;;;8.53;93.76
62926;BME280;55732;52.248;-0.844;2022-12-20T09:48:01;99798.27;;;8.57;93.47
62926;BME280;55732;52.248;-0.844;2022-12-20T09:50:44;99799.28;;;8.62;93.33
62926;BME280;55732;52.248;-0.844;2022-12-20T10:00:33;99794.98;;;8.74;92.50
62926;BME280;55732;52.248;-0.844;2022-12-20T10:03:01;99803.23;;;8.78;92.61
62926;BME280;55732;52.248;-0.844;2022-12-20T10:05:34;99808.94;;;8.88;92.45
62926;BME280;55732;52.248;-0.844;2022-12-20T10:08:05;99807.28;;;8.99;92.32
62926;BME280;55732;52.248;-0.844;2022-12-20T10:10:50;99807.60;;;9.04;91.94
62926;BME280;55732;52.248;-0.844;2022-12-20T10:15:45;99820.71;;;9.12;91.65
62926;BME280;55732;52.248;-0.844;2022-12-20T10:25:39;99819.67;;;9.52;90.93
62926;BME280;55732;52.248;-0.844;2022-12-20T10:28:10;99817.16;;;9.58;90.83
62926;BME280;55732;52.248;-0.844;2022-12-20T10:30:36;99813.80;;;9.58;90.53
62926;BME280;55732;52.248;-0.844;2022-12-20T10:33:01;99817.14;;;9.59;90.68
62926;BME280;55732;52.248;-0.844;2022-12-20T10:35:28;99823.81;;;9.59;90.23
62926;BME280;55732;52.248;-0.844;2022-12-20T10:38:02;99825.27;;;9.56;90.30
62926;BME280;55732;52.248;-0.844;2022-12-20T10:43:00;99826.52;;;9.54;90.26
62926;BME280;55732;52.248;-0.844;2022-12-20T10:45:28;99826.88;;;9.53;90.05
62926;BME280;55732;52.248;-0.844;2022-12-20T10:47:57;99838.48;;;9.53;90.05
62926;BME280;55732;52.248;-0.844;2022-12-20T10:50:24;99842.95;;;9.63;90.07
62926;BME280;55732;52.248;-0.844;2022-12-20T10:55:35;99840.32;;;9.79;89.82
62926;BME280;55732;52.248;-0.844;2022-12-20T10:58:29;99840.83;;;9.80;89.81
62926;BME280;55732;52.248;-0.844;2022-12-20T11:00:46;99835.21;;;9.80;89.67
62926;BME280;55732;52.248;-0.844;2022-12-20T11:05:39;99840.52;;;9.78;89.50
62926;BME280;55732;52.248;-0.844;2022-12-20T11:08:12;99833.67;;;9.77;89.55
62926;BME280;55732;52.248;-0.844;2022-12-20T11:10:40;99826.83;;;9.75;89.41
62926;BME280;55732;52.248;-0.844;2022-12-20T11:13:05;99827.18;;;9.75;89.52
62926;BME280;55732;52.248;-0.844;2022-12-20T11:15:34;99829.30;;;9.73;89.44
62926;BME280;55732;52.248;-0.844;2022-12-20T11:18:14;99825.96;;;9.73;89.46
62926;BME280;55732;52.248;-0.844;2022-12-20T11:20:43;99825.23;;;9.76;89.38
62926;BME280;55732;52.248;-0.844;2022-12-20T11:35:53;99836.44;;;9.81;88.71
62926;BME280;55732;52.248;-0.844;2022-12-20T11:51:22;99825.39;;;9.79;88.51
62926;BME280;55732;52.248;-0.844;2022-12-20T11:54:08;99828.20;;;9.79;88.53
62926;BME280;55732;52.248;-0.844;2022-12-20T11:56:35;99834.17;;;9.79;88.44
62926;BME280;55732;52.248;-0.844;2022-12-20T11:59:21;99840.83;;;9.81;88.42
62926;BME280;55732;52.248;-0.844;2022-12-20T12:01:51;99844.85;;;9.83;88.31
62926;BME280;55732;52.248;-0.844;2022-12-20T12:04:26;99851.15;;;9.87;88.17
62926;BME280;55732;52.248;-0.844;2022-12-20T12:07:01;99850.77;;;9.90;87.94
62926;BME280;55732;52.248;-0.844;2022-12-20T12:09:35;99845.45;;;9.93;87.92
62926;BME280;55732;52.248;-0.844;2022-12-20T12:12:37;99844.73;;;9.94;87.87
62926;BME280;55732;52.248;-0.844;2022-12-20T12:15:02;99839.09;;;9.96;87.84
62926;BME280;55732;52.248;-0.844;2022-12-20T12:18:04;99833.09;;;9.98;87.43
62926;BME280;55732;52.248;-0.844;2022-12-20T12:22:57;99829.20;;;10.01;87.55
62926;BME280;55732;52.248;-0.844;2022-12-20T12:25:25;99832.49;;;10.03;87.22
62926;BME280;55732;52.248;-0.844;2022-12-20T12:27:51;99829.31;;;10.04;87.11
62926;BME280;55732;52.248;-0.844;2022-12-20T12:30:16;99826.83;;;10.07;87.04
62926;BME280;55732;52.248;-0.844;2022-12-20T12:35:29;99819.61;;;10.08;86.40
62926;BME280;55732;52.248;-0.844;2022-12-20T12:45:45;99832.16;;;10.21;86.16
62926;BME280;55732;52.248;-0.844;2022-12-20T12:48:16;99834.61;;;10.22;86.04
62926;BME280;55732;52.248;-0.844;2022-12-20T12:50:45;99831.42;;;10.25;85.96
62926;BME280;55732;52.248;-0.844;2022-12-20T12:55:55;99817.17;;;10.25;85.38
62926;BME280;55732;52.248;-0.844;2022-12-20T13:03:14;99808.53;;;10.26;85.06
62926;BME280;55732;52.248;-0.844;2022-12-20T13:05:40;99814.35;;;10.25;85.22
62926;BME280;55732;52.248;-0.844;2022-12-20T13:08:16;99811.90;;;10.24;85.05
62926;BME280;55732;52.248;-0.844;2022-12-20T13:13:17;99814.36;;;10.24;85.03
62926;BME280;55732;52.248;-0.844;2022-12-20T13:15:50;99816.15;;;10.22;84.69
62926;BME280;55732;52.248;-0.844;2022-12-20T13:18:20;99814.23;;;10.19;84.72
62926;BME280;55732;52.248;-0.844;2022-12-20T13:21:15;99816.34;;;10.20;84.69
62926;BME280;55732;52.248;-0.844;2022-12-20T13:23:31;99816.33;;;10.22;84.51
62926;BME280;55732;52.248;-0.844;2022-12-20T13:25:56;99815.61;;;10.22;84.71
62926;BME280;55732;52.248;-0.844;2022-12-20T13:30:49;99816.00;;;10.20;84.63
62926;BME280;55732;52.248;-0.844;2022-12-20T13:33:38;99818.80;;;10.20;84.82
62926;BME280;55732;52.248;-0.844;2022-12-20T13:36:27;99821.80;;;10.20;84.63
62926;BME280;55732;52.248;-0.844;2022-12-20T13:38:53;99818.45;;;10.18;84.58
62926;BME280;55732;52.248;-0.844;2022-12-20T13:43:48;99818.79;;;10.17;84.41
62926;BME280;55732;52.248;-0.844;2022-12-20T13:46:23;99814.60;;;10.15;84.29
62926;BME280;55732;52.248;-0.844;2022-12-20T13:48:50;99810.43;;;10.11;84.11
62926;BME280;55732;52.248;-0.844;2022-12-20T13:51:17;99803.94;;;10.09;84.12
62926;BME280;55732;52.248;-0.844;2022-12-20T13:56:30;99800.80;;;10.06;84.18
62926;BME280;55732;52.248;-0.844;2022-12-20T13:59:11;99803.29;;;10.03;84.11
62926;BME280;55732;52.248;-0.844;2022-12-20T14:01:45;99806.66;;;10.03;84.48
62926;BME280;55732;52.248;-0.844;2022-12-20T14:04:11;99808.75;;;10.03;84.43
62926;BME280;55732;52.248;-0.844;2022-12-20T14:06:36;99803.50;;;10.02;84.17
62926;BME280;55732;52.248;-0.844;2022-12-20T14:09:02;99803.02;;;9.99;84.17
62926;BME280;55732;52.248;-0.844;2022-12-20T14:11:29;99804.80;;;9.97;84.37
62926;BME280;55732;52.248;-0.844;2022-12-20T14:13:56;99801.47;;;9.95;84.33
62926;BME280;55732;52.248;-0.844;2022-12-20T14:16:23;99805.38;;;9.91;84.10
62926;BME280;55732;52.248;-0.844;2022-12-20T14:19:35;99815.63;;;9.87;84.18
62926;BME280;55732;52.248;-0.844;2022-12-20T14:21:38;99812.88;;;9.81;84.39
62926;BME280;55732;52.248;-0.844;2022-12-20T14:24:05;99812.77;;;9.76;84.54
62926;BME280;55732;52.248;-0.844;2022-12-20T14:26:41;99816.48;;;9.72;84.43